sensor_id;sensor_type;location;lat;lon;timestamp;temperature;humidity
9810;DHT22;4944;52.514;13.192;2023-05-10T00:00:38;15.90;92.50
9810;DHT22;4944;52.514;13.192;2023-05-10T00:03:05;15.90;92.50
9810;DHT22;4944;52.514;13.192;2023-05-10T00:05:32;15.90;92.60
9810;DHT22;4944;52.514;13.192;2023-05-10T00:07:59;15.80;92.50
9810;DHT22;4944;52.514;13.192;2023-05-10T00:10:26;15.90;92.70
9810;DHT22;4944;52.514;13.192;2023-05-10T00:12:53;15.80;92.70
9810;DHT22;4944;52.514;13.192;2023-05-10T00:15:22;15.80;92.70
9810;DHT22;4944;52.514;13.192;2023-05-10T00:17:48;15.80;92.70
9810;DHT22;4944;52.514;13.192;2023-05-10T00:20:15;15.70;92.80
9810;DHT22;4944;52.514;13.192;2023-05-10T00:22:42;15.80;92.80
9810;DHT22;4944;52.514;13.192;2023-05-10T00:25:09;15.70;92.90
9810;DHT22;4944;52.514;13.192;2023-05-10T00:27:36;15.70;92.90
9810;DHT22;4944;52.514;13.192;2023-05-10T00:30:04;15.70;93.20
9810;DHT22;4944;52.514;13.192;2023-05-10T00:32:33;15.70;93.00
9810;DHT22;4944;52.514;13.192;2023-05-10T00:35:00;15.70;93.00
9810;DHT22;4944;52.514;13.192;2023-05-10T00:37:26;15.60;93.10
9810;DHT22;4944;52.514;13.192;2023-05-10T00:39:53;15.60;93.10
9810;DHT22;4944;52.514;13.192;2023-05-10T00:42:20;15.60;93.10
9810;DHT22;4944;52.514;13.192;2023-05-10T00:44:47;15.60;93.10
9810;DHT22;4944;52.514;13.192;2023-05-10T00:47:15;15.60;93.20
9810;DHT22;4944;52.514;13.192;2023-05-10T00:49:44;15.60;93.10
9810;DHT22;4944;52.514;13.192;2023-05-10T00:52:12;15.50;93.10
9810;DHT22;4944;52.514;13.192;2023-05-10T00:54:39;15.50;93.10
9810;DHT22;4944;52.514;13.192;2023-05-10T00:57:06;15.50;93.00
9810;DHT22;4944;52.514;13.192;2023-05-10T00:59:33;15.50;93.10
9810;DHT22;4944;52.514;13.192;2023-05-10T01:02:00;15.50;93.10
9810;DHT22;4944;52.514;13.192;2023-05-10T01:04:28;15.50;93.20
9810;DHT22;4944;52.514;13.192;2023-05-10T01:06:57;15.50;93.10
9810;DHT22;4944;52.514;13.192;2023-05-10T01:09:24;15.50;93.30
9810;DHT22;4944;52.514;13.192;2023-05-10T01:11:53;15.50;93.30
9810;DHT22;4944;52.514;13.192;2023-05-10T01:14:21;15.40;93.40
9810;DHT22;4944;52.514;13.192;2023-05-10T01:16:49;15.40;93.50
9810;DHT22;4944;52.514;13.192;2023-05-10T01:19:19;15.40;93.50
9810;DHT22;4944;52.514;13.192;2023-05-10T01:21:53;15.40;93.60
9810;DHT22;4944;52.514;13.192;2023-05-10T01:27:55;15.30;93.60
9810;DHT22;4944;52.514;13.192;2023-05-10T01:30:42;15.30;93.60
9810;DHT22;4944;52.514;13.192;2023-05-10T01:33:18;15.30;93.60
9810;DHT22;4944;52.514;13.192;2023-05-10T01:35:50;15.30;93.60
9810;DHT22;4944;52.514;13.192;2023-05-10T01:38:22;15.20;93.70
9810;DHT22;4944;52.514;13.192;2023-05-10T01:41:01;15.20;93.60
9810;DHT22;4944;52.514;13.192;2023-05-10T01:43:36;15.20;93.70
9810;DHT22;4944;52.514;13.192;2023-05-10T01:46:07;15.20;93.70
9810;DHT22;4944;52.514;13.192;2023-05-10T01:48:41;15.20;93.70
9810;DHT22;4944;52.514;13.192;2023-05-10T01:51:13;15.20;93.80
9810;DHT22;4944;52.514;13.192;2023-05-10T01:53:42;15.20;93.70
9810;DHT22;4944;52.514;13.192;2023-05-10T01:56:11;15.10;93.80
9810;DHT22;4944;52.514;13.192;2023-05-10T01:58:40;15.10;93.80
9810;DHT22;4944;52.514;13.192;2023-05-10T02:01:11;15.10;93.80
9810;DHT22;4944;52.514;13.192;2023-05-10T02:03:40;15.00;93.90
9810;DHT22;4944;52.514;13.192;2023-05-10T02:06:10;15.00;93.80
9810;DHT22;4944;52.514;13.192;2023-05-10T02:08:38;15.00;93.90
9810;DHT22;4944;52.514;13.192;2023-05-10T02:11:07;15.00;94.10
9810;DHT22;4944;52.514;13.192;2023-05-10T02:13:36;15.00;94.10
9810;DHT22;4944;52.514;13.192;2023-05-10T02:16:05;14.90;93.90
9810;DHT22;4944;52.514;13.192;2023-05-10T02:18:34;14.90;94.00
9810;DHT22;4944;52.514;13.192;2023-05-10T02:21:03;14.90;94.20
9810;DHT22;4944;52.514;13.192;2023-05-10T02:23:31;14.90;94.20
9810;DHT22;4944;52.514;13.192;2023-05-10T02:25:59;14.90;94.20
9810;DHT22;4944;52.514;13.192;2023-05-10T02:28:28;14.80;94.30
9810;DHT22;4944;52.514;13.192;2023-05-10T02:30:56;14.80;94.30
9810;DHT22;4944;52.514;13.192;2023-05-10T02:33:24;14.80;94.30
9810;DHT22;4944;52.514;13.192;2023-05-10T02:35:51;14.70;94.80
9810;DHT22;4944;52.514;13.192;2023-05-10T02:38:20;14.70;94.40
9810;DHT22;4944;52.514;13.192;2023-05-10T02:40:48;14.70;94.50
9810;DHT22;4944;52.514;13.192;2023-05-10T02:43:17;14.70;94.50
9810;DHT22;4944;52.514;13.192;2023-05-10T02:45:47;14.60;94.50
9810;DHT22;4944;52.514;13.192;2023-05-10T02:48:15;14.60;94.60
9810;DHT22;4944;52.514;13.192;2023-05-10T02:50:44;14.60;94.70
9810;DHT22;4944;52.514;13.192;2023-05-10T02:53:21;14.50;94.80
9810;DHT22;4944;52.514;13.192;2023-05-10T02:55:51;14.50;94.80
9810;DHT22;4944;52.514;13.192;2023-05-10T02:58:19;14.60;94.80
9810;DHT22;4944;52.514;13.192;2023-05-10T03:00:46;14.50;94.80
9810;DHT22;4944;52.514;13.192;2023-05-10T03:03:13;14.50;94.90
9810;DHT22;4944;52.514;13.192;2023-05-10T03:05:40;14.40;95.00
9810;DHT22;4944;52.514;13.192;2023-05-10T03:08:07;14.40;95.00
9810;DHT22;4944;52.514;13.192;2023-05-10T03:10:44;14.40;95.10
9810;DHT22;4944;52.514;13.192;2023-05-10T03:13:16;14.40;95.00
9810;DHT22;4944;52.514;13.192;2023-05-10T03:15:54;14.30;95.20
9810;DHT22;4944;52.514;13.192;2023-05-10T03:18:27;14.30;95.20
9810;DHT22;4944;52.514;13.192;2023-05-10T03:20:59;14.30;95.20
9810;DHT22;4944;52.514;13.192;2023-05-10T03:23:28;14.30;95.20
9810;DHT22;4944;52.514;13.192;2023-05-10T03:25:58;14.20;95.30
9810;DHT22;4944;52.514;13.192;2023-05-10T03:28:26;14.20;95.50
9810;DHT22;4944;52.514;13.192;2023-05-10T03:30:53;14.20;95.40
9810;DHT22;4944;52.514;13.192;2023-05-10T03:33:21;14.20;95.60
9810;DHT22;4944;52.514;13.192;2023-05-10T03:35:48;14.20;95.50
9810;DHT22;4944;52.514;13.192;2023-05-10T03:38:15;14.20;95.70
9810;DHT22;4944;52.514;13.192;2023-05-10T03:40:41;14.10;95.60
9810;DHT22;4944;52.514;13.192;2023-05-10T03:43:10;14.10;95.70
9810;DHT22;4944;52.514;13.192;2023-05-10T03:45:37;14.10;95.70
9810;DHT22;4944;52.514;13.192;2023-05-10T03:48:04;14.10;95.80
9810;DHT22;4944;52.514;13.192;2023-05-10T03:50:31;14.00;95.80
9810;DHT22;4944;52.514;13.192;2023-05-10T03:52:58;14.00;95.90
9810;DHT22;4944;52.514;13.192;2023-05-10T03:55:25;14.00;95.80
9810;DHT22;4944;52.514;13.192;2023-05-10T03:57:52;14.00;95.70
9810;DHT22;4944;52.514;13.192;2023-05-10T04:00:20;14.00;95.90
9810;DHT22;4944;52.514;13.192;2023-05-10T04:02:47;14.00;95.90
9810;DHT22;4944;52.514;13.192;2023-05-10T04:05:14;14.00;95.80
9810;DHT22;4944;52.514;13.192;2023-05-10T04:07:41;14.00;95.80
9810;DHT22;4944;52.514;13.192;2023-05-10T04:10:12;14.00;95.80
9810;DHT22;4944;52.514;13.192;2023-05-10T04:12:39;14.00;95.90
9810;DHT22;4944;52.514;13.192;2023-05-10T04:15:07;14.00;95.90
9810;DHT22;4944;52.514;13.192;2023-05-10T04:17:35;14.00;95.90
9810;DHT22;4944;52.514;13.192;2023-05-10T04:20:03;14.00;95.80
9810;DHT22;4944;52.514;13.192;2023-05-10T04:22:32;13.90;95.70
9810;DHT22;4944;52.514;13.192;2023-05-10T04:24:58;13.90;95.80
9810;DHT22;4944;52.514;13.192;2023-05-10T04:27:25;13.90;95.80
9810;DHT22;4944;52.514;13.192;2023-05-10T04:29:52;13.90;95.90
9810;DHT22;4944;52.514;13.192;2023-05-10T04:32:19;13.80;96.00
9810;DHT22;4944;52.514;13.192;2023-05-10T04:34:47;13.90;96.00
9810;DHT22;4944;52.514;13.192;2023-05-10T04:37:14;13.90;96.20
9810;DHT22;4944;52.514;13.192;2023-05-10T04:39:41;13.90;96.10
9810;DHT22;4944;52.514;13.192;2023-05-10T04:42:08;13.90;96.10
9810;DHT22;4944;52.514;13.192;2023-05-10T04:44:36;13.90;96.00
9810;DHT22;4944;52.514;13.192;2023-05-10T04:47:04;13.90;96.00
9810;DHT22;4944;52.514;13.192;2023-05-10T04:49:30;13.90;96.00
9810;DHT22;4944;52.514;13.192;2023-05-10T04:51:59;13.90;96.00
9810;DHT22;4944;52.514;13.192;2023-05-10T04:54:26;13.90;96.00
9810;DHT22;4944;52.514;13.192;2023-05-10T04:56:52;13.90;96.00
9810;DHT22;4944;52.514;13.192;2023-05-10T04:59:19;13.90;96.20
9810;DHT22;4944;52.514;13.192;2023-05-10T05:01:46;13.90;96.10
9810;DHT22;4944;52.514;13.192;2023-05-10T05:04:13;13.90;96.10
9810;DHT22;4944;52.514;13.192;2023-05-10T05:06:41;13.90;96.10
9810;DHT22;4944;52.514;13.192;2023-05-10T05:09:09;13.90;96.10
9810;DHT22;4944;52.514;13.192;2023-05-10T05:11:36;14.00;96.10
9810;DHT22;4944;52.514;13.192;2023-05-10T05:14:03;14.00;96.10
9810;DHT22;4944;52.514;13.192;2023-05-10T05:16:30;14.00;96.10
9810;DHT22;4944;52.514;13.192;2023-05-10T05:18:57;14.00;96.20
9810;DHT22;4944;52.514;13.192;2023-05-10T05:21:24;14.00;96.20
9810;DHT22;4944;52.514;13.192;2023-05-10T05:23:52;14.00;96.30
9810;DHT22;4944;52.514;13.192;2023-05-10T05:26:20;14.00;96.30
9810;DHT22;4944;52.514;13.192;2023-05-10T05:28:47;14.00;96.20
9810;DHT22;4944;52.514;13.192;2023-05-10T05:31:17;14.00;96.20
9810;DHT22;4944;52.514;13.192;2023-05-10T05:33:44;14.00;96.20
9810;DHT22;4944;52.514;13.192;2023-05-10T05:36:11;14.00;96.30
9810;DHT22;4944;52.514;13.192;2023-05-10T05:38:38;14.10;96.30
9810;DHT22;4944;52.514;13.192;2023-05-10T05:41:05;14.10;96.60
9810;DHT22;4944;52.514;13.192;2023-05-10T05:43:33;14.10;96.60
9810;DHT22;4944;52.514;13.192;2023-05-10T05:46:00;14.10;96.50
9810;DHT22;4944;52.514;13.192;2023-05-10T05:48:27;14.10;96.60
9810;DHT22;4944;52.514;13.192;2023-05-10T05:50:54;14.20;96.40
9810;DHT22;4944;52.514;13.192;2023-05-10T05:53:22;14.20;96.40
9810;DHT22;4944;52.514;13.192;2023-05-10T05:55:52;14.20;96.60
9810;DHT22;4944;52.514;13.192;2023-05-10T05:58:20;14.30;96.80
9810;DHT22;4944;52.514;13.192;2023-05-10T06:00:48;14.30;96.70
9810;DHT22;4944;52.514;13.192;2023-05-10T06:03:15;14.30;96.60
9810;DHT22;4944;52.514;13.192;2023-05-10T06:05:42;14.30;96.70
9810;DHT22;4944;52.514;13.192;2023-05-10T06:08:09;14.40;96.60
9810;DHT22;4944;52.514;13.192;2023-05-10T06:10:36;14.30;97.00
9810;DHT22;4944;52.514;13.192;2023-05-10T06:13:03;14.30;96.80
9810;DHT22;4944;52.514;13.192;2023-05-10T06:15:30;14.40;96.70
9810;DHT22;4944;52.514;13.192;2023-05-10T06:17:59;14.40;97.10
9810;DHT22;4944;52.514;13.192;2023-05-10T06:20:26;14.50;97.10
9810;DHT22;4944;52.514;13.192;2023-05-10T06:22:52;14.50;97.10
9810;DHT22;4944;52.514;13.192;2023-05-10T06:25:19;14.50;97.20
9810;DHT22;4944;52.514;13.192;2023-05-10T06:27:46;14.60;96.90
9810;DHT22;4944;52.514;13.192;2023-05-10T06:30:14;14.60;96.80
9810;DHT22;4944;52.514;13.192;2023-05-10T06:32:41;14.60;96.70
9810;DHT22;4944;52.514;13.192;2023-05-10T06:35:10;14.70;96.80
9810;DHT22;4944;52.514;13.192;2023-05-10T06:37:37;14.70;96.80
9810;DHT22;4944;52.514;13.192;2023-05-10T06:40:06;14.70;96.80
9810;DHT22;4944;52.514;13.192;2023-05-10T06:42:33;14.80;97.10
9810;DHT22;4944;52.514;13.192;2023-05-10T06:45:00;14.80;96.90
9810;DHT22;4944;52.514;13.192;2023-05-10T06:47:27;14.80;96.80
9810;DHT22;4944;52.514;13.192;2023-05-10T06:49:54;14.80;96.60
9810;DHT22;4944;52.514;13.192;2023-05-10T06:52:22;14.90;96.80
9810;DHT22;4944;52.514;13.192;2023-05-10T06:54:49;14.90;96.60
9810;DHT22;4944;52.514;13.192;2023-05-10T06:57:17;14.90;96.70
9810;DHT22;4944;52.514;13.192;2023-05-10T06:59:44;14.90;96.70
9810;DHT22;4944;52.514;13.192;2023-05-10T07:02:11;15.00;96.90
9810;DHT22;4944;52.514;13.192;2023-05-10T07:04:38;15.00;96.70
9810;DHT22;4944;52.514;13.192;2023-05-10T07:07:05;15.00;96.50
9810;DHT22;4944;52.514;13.192;2023-05-10T07:09:33;15.10;96.50
9810;DHT22;4944;52.514;13.192;2023-05-10T07:12:00;15.10;97.10
9810;DHT22;4944;52.514;13.192;2023-05-10T07:14:27;15.10;96.70
9810;DHT22;4944;52.514;13.192;2023-05-10T07:16:54;15.10;96.60
9810;DHT22;4944;52.514;13.192;2023-05-10T07:19:21;15.10;96.70
9810;DHT22;4944;52.514;13.192;2023-05-10T07:21:48;15.20;97.00
9810;DHT22;4944;52.514;13.192;2023-05-10T07:24:15;15.20;97.00
9810;DHT22;4944;52.514;13.192;2023-05-10T07:26:43;15.20;96.90
9810;DHT22;4944;52.514;13.192;2023-05-10T07:29:10;15.30;97.30
9810;DHT22;4944;52.514;13.192;2023-05-10T07:31:37;15.30;96.80
9810;DHT22;4944;52.514;13.192;2023-05-10T07:34:04;15.30;96.90
9810;DHT22;4944;52.514;13.192;2023-05-10T07:36:31;15.40;96.80
9810;DHT22;4944;52.514;13.192;2023-05-10T07:38:58;15.40;96.90
9810;DHT22;4944;52.514;13.192;2023-05-10T07:41:25;15.40;96.90
9810;DHT22;4944;52.514;13.192;2023-05-10T07:43:54;15.50;96.80
9810;DHT22;4944;52.514;13.192;2023-05-10T07:46:21;15.50;96.70
9810;DHT22;4944;52.514;13.192;2023-05-10T07:48:47;15.60;96.80
9810;DHT22;4944;52.514;13.192;2023-05-10T07:51:14;15.60;97.10
9810;DHT22;4944;52.514;13.192;2023-05-10T07:53:42;15.70;97.30
9810;DHT22;4944;52.514;13.192;2023-05-10T07:56:22;15.70;97.30
9810;DHT22;4944;52.514;13.192;2023-05-10T07:58:50;15.70;96.70
9810;DHT22;4944;52.514;13.192;2023-05-10T08:01:19;15.80;96.80
9810;DHT22;4944;52.514;13.192;2023-05-10T08:03:46;15.80;96.90
9810;DHT22;4944;52.514;13.192;2023-05-10T08:06:14;15.90;98.00
9810;DHT22;4944;52.514;13.192;2023-05-10T08:08:41;15.90;97.90
9810;DHT22;4944;52.514;13.192;2023-05-10T08:11:08;15.90;97.20
9810;DHT22;4944;52.514;13.192;2023-05-10T08:13:35;15.90;97.10
9810;DHT22;4944;52.514;13.192;2023-05-10T08:16:02;16.00;96.80
9810;DHT22;4944;52.514;13.192;2023-05-10T08:18:30;16.00;97.00
9810;DHT22;4944;52.514;13.192;2023-05-10T08:20:57;16.10;96.60
9810;DHT22;4944;52.514;13.192;2023-05-10T13:57:01;25.90;79.90
9810;DHT22;4944;52.514;13.192;2023-05-10T13:59:28;26.00;83.30
9810;DHT22;4944;52.514;13.192;2023-05-10T14:01:57;26.00;82.50
9810;DHT22;4944;52.514;13.192;2023-05-10T14:04:24;25.80;82.80
9810;DHT22;4944;52.514;13.192;2023-05-10T14:06:50;25.50;81.20
9810;DHT22;4944;52.514;13.192;2023-05-10T14:09:18;25.40;80.60
9810;DHT22;4944;52.514;13.192;2023-05-10T14:11:45;25.20;81.80
9810;DHT22;4944;52.514;13.192;2023-05-10T14:14:13;25.20;82.70
9810;DHT22;4944;52.514;13.192;2023-05-10T14:16:42;25.30;82.30
9810;DHT22;4944;52.514;13.192;2023-05-10T14:19:09;25.50;80.40
9810;DHT22;4944;52.514;13.192;2023-05-10T14:21:37;25.40;80.30
9810;DHT22;4944;52.514;13.192;2023-05-10T14:24:04;25.30;80.20
9810;DHT22;4944;52.514;13.192;2023-05-10T14:26:32;25.20;81.20
9810;DHT22;4944;52.514;13.192;2023-05-10T14:28:59;25.00;82.30
9810;DHT22;4944;52.514;13.192;2023-05-10T14:31:28;24.80;82.20
9810;DHT22;4944;52.514;13.192;2023-05-10T14:33:55;24.80;84.60
9810;DHT22;4944;52.514;13.192;2023-05-10T14:36:22;24.60;82.10
9810;DHT22;4944;52.514;13.192;2023-05-10T14:38:49;24.50;82.10
9810;DHT22;4944;52.514;13.192;2023-05-10T14:41:17;24.40;81.20
9810;DHT22;4944;52.514;13.192;2023-05-10T14:43:44;24.40;81.20
9810;DHT22;4944;52.514;13.192;2023-05-10T14:46:11;24.30;81.70
9810;DHT22;4944;52.514;13.192;2023-05-10T14:48:40;24.10;81.70
9810;DHT22;4944;52.514;13.192;2023-05-10T14:51:06;24.00;85.20
9810;DHT22;4944;52.514;13.192;2023-05-10T14:53:33;24.00;85.40
9810;DHT22;4944;52.514;13.192;2023-05-10T14:56:00;23.90;84.50
9810;DHT22;4944;52.514;13.192;2023-05-10T14:58:28;23.90;82.60
9810;DHT22;4944;52.514;13.192;2023-05-10T15:00:55;23.90;82.60
9810;DHT22;4944;52.514;13.192;2023-05-10T15:03:23;24.00;82.00
9810;DHT22;4944;52.514;13.192;2023-05-10T15:05:51;24.10;81.70
9810;DHT22;4944;52.514;13.192;2023-05-10T15:08:18;24.30;81.90
9810;DHT22;4944;52.514;13.192;2023-05-10T15:10:45;24.50;85.60
9810;DHT22;4944;52.514;13.192;2023-05-10T15:13:13;24.50;84.00
9810;DHT22;4944;52.514;13.192;2023-05-10T15:15:40;24.60;83.50
9810;DHT22;4944;52.514;13.192;2023-05-10T15:18:07;24.50;83.10
9810;DHT22;4944;52.514;13.192;2023-05-10T15:20:33;24.60;85.50
9810;DHT22;4944;52.514;13.192;2023-05-10T15:23:02;24.60;81.20
9810;DHT22;4944;52.514;13.192;2023-05-10T15:25:28;24.60;80.00
9810;DHT22;4944;52.514;13.192;2023-05-10T15:27:55;24.50;80.10
9810;DHT22;4944;52.514;13.192;2023-05-10T15:30:22;24.50;79.50
9810;DHT22;4944;52.514;13.192;2023-05-10T15:32:49;24.60;79.50
9810;DHT22;4944;52.514;13.192;2023-05-10T15:35:16;24.70;81.30
9810;DHT22;4944;52.514;13.192;2023-05-10T15:37:43;24.80;84.00
9810;DHT22;4944;52.514;13.192;2023-05-10T15:40:12;24.80;83.00
9810;DHT22;4944;52.514;13.192;2023-05-10T15:42:39;24.80;83.30
9810;DHT22;4944;52.514;13.192;2023-05-10T15:45:07;24.70;85.00
9810;DHT22;4944;52.514;13.192;2023-05-10T15:47:34;24.80;86.70
9810;DHT22;4944;52.514;13.192;2023-05-10T15:50:01;24.80;87.60
9810;DHT22;4944;52.514;13.192;2023-05-10T15:52:28;24.80;87.60
9810;DHT22;4944;52.514;13.192;2023-05-10T15:54:54;24.80;84.70
9810;DHT22;4944;52.514;13.192;2023-05-10T15:57:23;23.90;94.50
9810;DHT22;4944;52.514;13.192;2023-05-10T15:59:50;23.60;95.90
9810;DHT22;4944;52.514;13.192;2023-05-10T16:02:17;23.30;96.90
9810;DHT22;4944;52.514;13.192;2023-05-10T16:04:44;23.00;97.20
9810;DHT22;4944;52.514;13.192;2023-05-10T16:07:11;22.80;97.40
9810;DHT22;4944;52.514;13.192;2023-05-10T16:09:37;22.60;98.00
9810;DHT22;4944;52.514;13.192;2023-05-10T16:12:06;22.80;98.10
9810;DHT22;4944;52.514;13.192;2023-05-10T16:14:35;22.50;98.10
9810;DHT22;4944;52.514;13.192;2023-05-10T16:17:02;22.40;98.20
9810;DHT22;4944;52.514;13.192;2023-05-10T16:19:29;22.30;98.70
9810;DHT22;4944;52.514;13.192;2023-05-10T16:21:56;22.30;99.10
9810;DHT22;4944;52.514;13.192;2023-05-10T16:24:25;22.20;99.00
9810;DHT22;4944;52.514;13.192;2023-05-10T16:26:52;22.00;99.30
9810;DHT22;4944;52.514;13.192;2023-05-10T16:29:19;21.70;99.60
9810;DHT22;4944;52.514;13.192;2023-05-10T16:31:47;21.60;99.90
9810;DHT22;4944;52.514;13.192;2023-05-10T16:34:14;21.30;99.90
9810;DHT22;4944;52.514;13.192;2023-05-10T16:36:41;21.30;99.90
9810;DHT22;4944;52.514;13.192;2023-05-10T16:39:07;21.30;99.90
9810;DHT22;4944;52.514;13.192;2023-05-10T16:41:35;21.10;99.90
9810;DHT22;4944;52.514;13.192;2023-05-10T16:44:01;21.00;99.90
9810;DHT22;4944;52.514;13.192;2023-05-10T16:46:29;20.80;99.90
9810;DHT22;4944;52.514;13.192;2023-05-10T16:48:57;20.80;99.90
9810;DHT22;4944;52.514;13.192;2023-05-10T16:51:24;20.80;99.90
9810;DHT22;4944;52.514;13.192;2023-05-10T16:53:52;20.90;99.90
9810;DHT22;4944;52.514;13.192;2023-05-10T16:56:19;20.90;99.90
9810;DHT22;4944;52.514;13.192;2023-05-10T16:58:46;20.80;99.90
9810;DHT22;4944;52.514;13.192;2023-05-10T17:01:14;20.70;99.90
9810;DHT22;4944;52.514;13.192;2023-05-10T17:03:41;20.60;99.90
9810;DHT22;4944;52.514;13.192;2023-05-10T17:06:10;20.50;99.90
9810;DHT22;4944;52.514;13.192;2023-05-10T17:08:37;20.40;99.90
9810;DHT22;4944;52.514;13.192;2023-05-10T17:11:04;20.30;99.90
9810;DHT22;4944;52.514;13.192;2023-05-10T17:13:31;20.10;99.90
9810;DHT22;4944;52.514;13.192;2023-05-10T17:15:59;20.10;99.90
9810;DHT22;4944;52.514;13.192;2023-05-10T17:18:28;20.00;99.90
9810;DHT22;4944;52.514;13.192;2023-05-10T17:20:55;20.00;99.90
9810;DHT22;4944;52.514;13.192;2023-05-10T17:23:23;20.10;99.90
9810;DHT22;4944;52.514;13.192;2023-05-10T17:25:50;20.20;99.90
9810;DHT22;4944;52.514;13.192;2023-05-10T17:28:17;20.20;99.90
9810;DHT22;4944;52.514;13.192;2023-05-10T17:30:44;20.30;99.90
9810;DHT22;4944;52.514;13.192;2023-05-10T17:33:11;20.30;99.90
9810;DHT22;4944;52.514;13.192;2023-05-10T17:35:38;20.40;99.90
9810;DHT22;4944;52.514;13.192;2023-05-10T17:38:04;20.30;99.90
9810;DHT22;4944;52.514;13.192;2023-05-10T17:40:33;20.30;99.90
9810;DHT22;4944;52.514;13.192;2023-05-10T17:43:00;20.10;99.90
9810;DHT22;4944;52.514;13.192;2023-05-10T17:45:27;20.00;99.90
9810;DHT22;4944;52.514;13.192;2023-05-10T17:47:53;20.00;99.90
9810;DHT22;4944;52.514;13.192;2023-05-10T17:50:20;19.90;99.90
9810;DHT22;4944;52.514;13.192;2023-05-10T17:52:47;19.90;99.90
9810;DHT22;4944;52.514;13.192;2023-05-10T17:55:14;19.80;99.90
9810;DHT22;4944;52.514;13.192;2023-05-10T17:57:42;19.80;99.90
9810;DHT22;4944;52.514;13.192;2023-05-10T18:00:10;19.70;99.90
9810;DHT22;4944;52.514;13.192;2023-05-10T18:02:37;19.70;99.90
9810;DHT22;4944;52.514;13.192;2023-05-10T18:05:05;19.80;99.90
9810;DHT22;4944;52.514;13.192;2023-05-10T18:07:32;19.80;99.90
9810;DHT22;4944;52.514;13.192;2023-05-10T18:10:00;19.80;99.90
9810;DHT22;4944;52.514;13.192;2023-05-10T18:12:27;19.80;99.90
9810;DHT22;4944;52.514;13.192;2023-05-10T18:14:55;19.60;99.90
9810;DHT22;4944;52.514;13.192;2023-05-10T18:17:22;19.70;99.90
9810;DHT22;4944;52.514;13.192;2023-05-10T18:19:49;19.70;99.90
9810;DHT22;4944;52.514;13.192;2023-05-10T18:22:16;19.60;99.90
9810;DHT22;4944;52.514;13.192;2023-05-10T18:24:44;19.60;99.90
9810;DHT22;4944;52.514;13.192;2023-05-10T18:27:12;19.60;99.90
9810;DHT22;4944;52.514;13.192;2023-05-10T18:29:39;19.70;99.90
9810;DHT22;4944;52.514;13.192;2023-05-10T18:32:08;19.70;99.90
9810;DHT22;4944;52.514;13.192;2023-05-10T18:34:35;19.70;99.90
9810;DHT22;4944;52.514;13.192;2023-05-10T18:37:02;19.70;99.90
9810;DHT22;4944;52.514;13.192;2023-05-10T18:39:31;19.80;99.90
9810;DHT22;4944;52.514;13.192;2023-05-10T18:41:58;19.80;99.90
9810;DHT22;4944;52.514;13.192;2023-05-10T18:44:25;19.80;99.90
9810;DHT22;4944;52.514;13.192;2023-05-10T18:46:53;19.80;99.90
9810;DHT22;4944;52.514;13.192;2023-05-10T18:49:21;19.90;99.90
9810;DHT22;4944;52.514;13.192;2023-05-10T18:51:48;19.90;99.90
9810;DHT22;4944;52.514;13.192;2023-05-10T18:54:15;19.80;99.90
9810;DHT22;4944;52.514;13.192;2023-05-10T18:56:42;19.90;99.90
9810;DHT22;4944;52.514;13.192;2023-05-10T18:59:10;19.90;99.90
9810;DHT22;4944;52.514;13.192;2023-05-10T19:01:37;19.90;99.90
9810;DHT22;4944;52.514;13.192;2023-05-10T19:04:04;19.90;99.90
9810;DHT22;4944;52.514;13.192;2023-05-10T19:06:32;19.80;99.90
9810;DHT22;4944;52.514;13.192;2023-05-10T19:08:59;19.80;99.90
9810;DHT22;4944;52.514;13.192;2023-05-10T19:11:26;19.80;99.90
9810;DHT22;4944;52.514;13.192;2023-05-10T19:13:56;19.80;99.90
9810;DHT22;4944;52.514;13.192;2023-05-10T19:16:23;19.70;99.90
9810;DHT22;4944;52.514;13.192;2023-05-10T19:18:50;19.70;99.90
9810;DHT22;4944;52.514;13.192;2023-05-10T19:21:17;19.70;99.90
9810;DHT22;4944;52.514;13.192;2023-05-10T19:23:46;19.60;99.90
9810;DHT22;4944;52.514;13.192;2023-05-10T19:26:13;19.60;99.90
9810;DHT22;4944;52.514;13.192;2023-05-10T19:28:40;19.60;99.90
9810;DHT22;4944;52.514;13.192;2023-05-10T19:31:07;19.60;99.90
9810;DHT22;4944;52.514;13.192;2023-05-10T19:33:34;19.60;99.90
9810;DHT22;4944;52.514;13.192;2023-05-10T19:36:01;19.60;99.90
9810;DHT22;4944;52.514;13.192;2023-05-10T19:38:28;19.50;99.90
9810;DHT22;4944;52.514;13.192;2023-05-10T19:40:57;19.50;99.90
9810;DHT22;4944;52.514;13.192;2023-05-10T19:43:24;19.40;99.90
9810;DHT22;4944;52.514;13.192;2023-05-10T19:45:51;19.40;99.90
9810;DHT22;4944;52.514;13.192;2023-05-10T19:48:18;19.30;99.90
9810;DHT22;4944;52.514;13.192;2023-05-10T19:50:45;19.30;99.90
9810;DHT22;4944;52.514;13.192;2023-05-10T19:53:12;19.30;99.90
9810;DHT22;4944;52.514;13.192;2023-05-10T19:55:39;19.30;99.90
9810;DHT22;4944;52.514;13.192;2023-05-10T19:58:07;19.30;99.90
9810;DHT22;4944;52.514;13.192;2023-05-10T20:00:34;19.30;99.90
9810;DHT22;4944;52.514;13.192;2023-05-10T20:03:01;19.20;99.90
9810;DHT22;4944;52.514;13.192;2023-05-10T20:05:30;19.20;99.90
9810;DHT22;4944;52.514;13.192;2023-05-10T20:07:57;19.20;99.90
9810;DHT22;4944;52.514;13.192;2023-05-10T20:10:24;19.20;99.90
9810;DHT22;4944;52.514;13.192;2023-05-10T20:12:51;19.20;99.90
9810;DHT22;4944;52.514;13.192;2023-05-10T20:15:21;19.20;99.90
9810;DHT22;4944;52.514;13.192;2023-05-10T20:17:49;19.10;99.90
9810;DHT22;4944;52.514;13.192;2023-05-10T20:20:17;19.00;99.90
9810;DHT22;4944;52.514;13.192;2023-05-10T20:22:44;19.00;99.90
9810;DHT22;4944;52.514;13.192;2023-05-10T20:25:12;19.00;99.90
9810;DHT22;4944;52.514;13.192;2023-05-10T20:27:39;19.00;99.90
9810;DHT22;4944;52.514;13.192;2023-05-10T20:30:06;19.00;99.90
9810;DHT22;4944;52.514;13.192;2023-05-10T20:32:35;19.00;99.90
9810;DHT22;4944;52.514;13.192;2023-05-10T20:35:03;18.90;99.90
9810;DHT22;4944;52.514;13.192;2023-05-10T20:37:30;18.90;99.90
9810;DHT22;4944;52.514;13.192;2023-05-10T20:39:57;18.90;99.90
9810;DHT22;4944;52.514;13.192;2023-05-10T20:42:23;18.80;99.90
9810;DHT22;4944;52.514;13.192;2023-05-10T20:44:51;18.80;99.90
9810;DHT22;4944;52.514;13.192;2023-05-10T20:47:18;18.80;99.90
9810;DHT22;4944;52.514;13.192;2023-05-10T20:49:46;18.80;99.90
9810;DHT22;4944;52.514;13.192;2023-05-10T20:52:13;18.80;99.90
9810;DHT22;4944;52.514;13.192;2023-05-10T20:54:40;18.80;99.90
9810;DHT22;4944;52.514;13.192;2023-05-10T20:57:07;18.80;99.90
9810;DHT22;4944;52.514;13.192;2023-05-10T20:59:33;18.70;99.90
9810;DHT22;4944;52.514;13.192;2023-05-10T21:02:00;18.70;99.90
9810;DHT22;4944;52.514;13.192;2023-05-10T21:04:27;18.70;99.90
9810;DHT22;4944;52.514;13.192;2023-05-10T21:06:56;18.70;99.90
9810;DHT22;4944;52.514;13.192;2023-05-10T21:09:23;18.70;99.90
9810;DHT22;4944;52.514;13.192;2023-05-10T21:11:49;18.70;99.90
9810;DHT22;4944;52.514;13.192;2023-05-10T21:14:16;18.70;99.90
9810;DHT22;4944;52.514;13.192;2023-05-10T21:16:43;18.70;99.90
9810;DHT22;4944;52.514;13.192;2023-05-10T21:19:10;18.70;99.90
9810;DHT22;4944;52.514;13.192;2023-05-10T21:21:37;18.70;99.90
9810;DHT22;4944;52.514;13.192;2023-05-10T21:24:06;18.60;99.90